Terminal Aerodrome Forecast
Issued by NWS Caribou, ME

Home | Current Version | Previous Version | Text Only | Print | Product List | Glossary On
Versions: 1 2 3 4 5 6 7 8 9 10 11 12 13 14 15 16 17 18 19 20 21 22 23 24 25 26 27 28 29 30 31 32 33 34
000
FTUS41 KCAR 101522 AAA
TAFBGR
TAF AMD
KBGR 101522Z 1015/1112 22010G18KT P6SM BKN014
     FM101800 25009G16KT P6SM VCSH BKN017
     FM102200 25010KT P6SM VCSH BKN040=

USA.gov is the U.S. government's official web portal to all federal, state and local government web resources and services.